createdAt,value
2022-07-29T00:01:44.427Z,19.77
2022-07-29T00:04:14.007Z,19.71
2022-07-29T00:06:42.736Z,19.67
2022-07-29T00:09:10.813Z,19.63
2022-07-29T00:11:39.170Z,19.60
2022-07-29T00:14:07.230Z,19.57
2022-07-29T00:16:35.602Z,19.54
2022-07-29T00:19:04.877Z,19.51
2022-07-29T00:21:32.970Z,19.47
2022-07-29T00:24:00.995Z,19.43
2022-07-29T00:26:32.732Z,19.40
2022-07-29T00:29:32.383Z,19.38
2022-07-29T00:31:50.991Z,19.36
2022-07-29T00:34:37.558Z,19.33
2022-07-29T00:37:05.662Z,19.32
2022-07-29T00:39:35.889Z,19.30
2022-07-29T00:42:05.791Z,19.28
2022-07-29T00:44:41.701Z,19.26
2022-07-29T00:47:11.713Z,19.23
2022-07-29T00:49:43.408Z,19.20
2022-07-29T00:52:12.199Z,19.18
2022-07-29T00:54:43.999Z,19.15
2022-07-29T00:57:14.018Z,19.13
2022-07-29T00:59:42.427Z,19.10
2022-07-29T01:02:10.587Z,19.07
2022-07-29T01:04:38.908Z,19.03
2022-07-29T01:07:07.963Z,19.00
2022-07-29T01:09:45.926Z,18.97
2022-07-29T01:12:22.804Z,18.95
2022-07-29T01:14:52.072Z,18.92
2022-07-29T01:17:28.297Z,18.90
2022-07-29T01:20:02.403Z,18.89
2022-07-29T01:22:36.433Z,18.88
2022-07-29T01:25:51.631Z,18.86
2022-07-29T01:28:46.051Z,18.86
2022-07-29T01:31:25.088Z,18.85
2022-07-29T01:34:01.993Z,18.84
2022-07-29T01:36:46.789Z,18.83
2022-07-29T01:39:27.624Z,18.81
2022-07-29T01:42:37.358Z,18.78
2022-07-29T01:45:20.746Z,18.74
2022-07-29T01:48:03.342Z,18.70
2022-07-29T01:50:39.027Z,18.66
2022-07-29T01:53:10.825Z,18.63
2022-07-29T01:55:43.766Z,18.59
2022-07-29T01:58:13.633Z,18.56
2022-07-29T02:00:44.339Z,18.53
2022-07-29T02:03:15.917Z,18.50
2022-07-29T02:05:46.934Z,18.48
2022-07-29T02:08:17.773Z,18.45
2022-07-29T02:10:48.579Z,18.42
2022-07-29T02:13:19.270Z,18.40
2022-07-29T02:15:49.033Z,18.38
2022-07-29T02:18:19.760Z,18.37
2022-07-29T02:20:54.168Z,18.36
2022-07-29T02:23:24.391Z,18.35
2022-07-29T02:25:58.480Z,18.35
2022-07-29T02:28:29.893Z,18.34
2022-07-29T02:31:03.503Z,18.33
2022-07-29T02:33:33.083Z,18.31
2022-07-29T02:36:02.994Z,18.29
2022-07-29T02:38:50.689Z,18.27
2022-07-29T02:41:31.457Z,18.24
2022-07-29T02:44:34.888Z,18.21
2022-07-29T02:47:41.459Z,18.18
2022-07-29T02:50:32.014Z,18.16
2022-07-29T02:53:06.264Z,18.12
2022-07-29T02:55:49.356Z,18.10
2022-07-29T02:58:29.406Z,18.06
2022-07-29T03:01:06.462Z,18.03
2022-07-29T03:03:38.736Z,18.00
2022-07-29T03:06:08.711Z,17.98
2022-07-29T03:08:59.228Z,17.96
2022-07-29T03:11:42.394Z,17.94
2022-07-29T03:14:17.818Z,17.92
2022-07-29T03:16:49.201Z,17.92
2022-07-29T03:19:18.403Z,17.91
2022-07-29T03:21:47.750Z,17.90
2022-07-29T03:24:27.996Z,17.90
2022-07-29T03:26:57.569Z,17.91
2022-07-29T03:29:32.939Z,17.92
2022-07-29T03:32:08.281Z,17.94
2022-07-29T03:34:39.034Z,17.96
2022-07-29T03:37:07.765Z,17.98
2022-07-29T03:39:42.058Z,18.01
2022-07-29T03:42:15.069Z,18.04
2022-07-29T03:44:46.781Z,18.08
2022-07-29T03:47:16.234Z,18.11
2022-07-29T03:49:48.800Z,18.15
2022-07-29T03:52:16.939Z,18.18
2022-07-29T03:54:45.319Z,18.22
2022-07-29T03:57:16.179Z,18.27
2022-07-29T03:59:45.448Z,18.30
2022-07-29T04:02:14.922Z,18.33
2022-07-29T04:04:45.893Z,18.35
2022-07-29T04:07:15.417Z,18.39
2022-07-29T04:09:43.651Z,18.44
2022-07-29T04:12:11.808Z,18.48
2022-07-29T04:14:40.027Z,18.52
2022-07-29T04:17:11.359Z,18.57
2022-07-29T04:19:39.477Z,18.61
2022-07-29T04:22:07.406Z,18.65
2022-07-29T04:24:35.896Z,18.69
2022-07-29T04:27:04.007Z,18.73
2022-07-29T04:29:32.171Z,18.77
2022-07-29T04:32:00.081Z,18.80
2022-07-29T04:34:28.477Z,18.84
2022-07-29T04:36:56.987Z,18.88
2022-07-29T04:39:25.758Z,18.92
2022-07-29T04:41:57.779Z,18.95
2022-07-29T04:44:29.051Z,18.99
2022-07-29T04:46:58.481Z,19.04
2022-07-29T04:49:26.831Z,19.09
2022-07-29T04:51:55.190Z,19.15
2022-07-29T04:54:23.356Z,19.20
2022-07-29T04:56:51.427Z,19.27
2022-07-29T04:59:19.553Z,19.34
2022-07-29T05:01:47.673Z,19.40
2022-07-29T05:04:16.037Z,19.47
2022-07-29T05:06:44.721Z,19.51
2022-07-29T05:09:12.811Z,19.55
2022-07-29T05:11:40.904Z,19.57
2022-07-29T05:14:09.050Z,19.61
2022-07-29T05:16:37.761Z,19.65
2022-07-29T05:19:07.022Z,19.70
2022-07-29T05:21:37.741Z,19.76
2022-07-29T05:24:06.196Z,19.81
2022-07-29T05:26:34.283Z,19.87
2022-07-29T05:29:02.580Z,19.92
2022-07-29T05:31:30.727Z,19.96
2022-07-29T05:33:58.894Z,20.00
2022-07-29T05:36:27.383Z,20.06
2022-07-29T05:38:55.598Z,20.12
2022-07-29T05:41:23.913Z,20.18
2022-07-29T05:43:52.097Z,20.25
2022-07-29T05:46:20.793Z,20.35
2022-07-29T05:48:49.133Z,20.46
2022-07-29T05:51:17.337Z,20.55
2022-07-29T05:53:46.069Z,20.62
2022-07-29T05:56:14.121Z,20.70
2022-07-29T05:58:42.140Z,20.78
2022-07-29T06:01:10.258Z,20.89
2022-07-29T06:03:39.111Z,21.00
2022-07-29T06:06:08.242Z,21.11
2022-07-29T06:08:37.412Z,21.24
2022-07-29T06:11:06.129Z,21.36
2022-07-29T06:13:34.171Z,21.49
2022-07-29T06:16:02.322Z,21.61
2022-07-29T06:18:30.620Z,21.73
2022-07-29T06:21:01.346Z,21.82
2022-07-29T06:23:29.485Z,21.90
2022-07-29T06:25:57.472Z,21.97
2022-07-29T06:28:25.603Z,22.06
2022-07-29T06:30:53.647Z,22.12
2022-07-29T06:33:22.887Z,22.24
2022-07-29T06:35:53.685Z,22.38
2022-07-29T06:38:31.174Z,22.50
2022-07-29T06:41:07.087Z,22.69
2022-07-29T06:43:50.428Z,22.94
2022-07-29T06:46:20.836Z,23.18
2022-07-29T06:48:49.805Z,23.44
2022-07-29T06:51:23.348Z,23.67
2022-07-29T06:53:59.076Z,23.88
2022-07-29T06:56:38.148Z,24.11
2022-07-29T06:59:09.613Z,24.30
2022-07-29T07:01:39.182Z,24.48
2022-07-29T07:04:09.874Z,24.67
2022-07-29T07:06:38.957Z,24.90
2022-07-29T07:09:07.363Z,25.12
2022-07-29T07:11:35.513Z,25.34
2022-07-29T07:14:04.368Z,25.55
2022-07-29T07:16:33.545Z,25.74
2022-07-29T07:19:02.010Z,25.94
2022-07-29T07:21:31.357Z,26.12
2022-07-29T07:24:00.640Z,26.29
2022-07-29T07:26:28.823Z,26.49
2022-07-29T07:28:56.936Z,26.75
2022-07-29T07:31:25.052Z,27.02
2022-07-29T07:33:54.631Z,27.24
2022-07-29T07:36:23.815Z,27.40
2022-07-29T07:38:51.908Z,27.59
2022-07-29T07:41:19.912Z,27.72
2022-07-29T07:43:48.263Z,27.82
2022-07-29T07:46:18.159Z,27.99
2022-07-29T07:48:46.258Z,28.10
2022-07-29T07:51:14.358Z,28.22
2022-07-29T07:53:44.153Z,28.43
2022-07-29T07:56:12.984Z,28.59
2022-07-29T07:58:41.378Z,28.79
2022-07-29T08:01:10.305Z,29.01
2022-07-29T08:03:39.018Z,29.20
2022-07-29T08:06:07.224Z,29.40
2022-07-29T08:08:35.352Z,29.57
2022-07-29T08:11:09.037Z,29.79
2022-07-29T08:13:39.549Z,30.01
2022-07-29T08:16:13.186Z,30.13
2022-07-29T08:18:42.972Z,30.18
2022-07-29T08:21:11.193Z,30.28
2022-07-29T08:23:54.388Z,30.38
2022-07-29T08:26:27.078Z,30.53
2022-07-29T08:28:55.334Z,30.70
2022-07-29T08:31:23.555Z,30.89
2022-07-29T08:33:51.561Z,31.07
2022-07-29T08:36:22.145Z,31.22
2022-07-29T08:38:50.670Z,31.44
2022-07-29T08:41:20.666Z,31.62
2022-07-29T08:43:50.170Z,31.75
2022-07-29T08:46:18.830Z,31.84
2022-07-29T08:48:48.239Z,31.90
2022-07-29T08:51:19.269Z,32.04
2022-07-29T08:53:49.561Z,32.14
2022-07-29T08:56:20.567Z,32.15
2022-07-29T08:58:52.056Z,32.24
2022-07-29T09:01:35.584Z,32.38
2022-07-29T09:04:08.663Z,32.34
2022-07-29T09:06:43.122Z,32.41
2022-07-29T09:09:11.426Z,32.61
2022-07-29T09:11:39.657Z,32.89
2022-07-29T09:14:08.306Z,33.08
2022-07-29T09:16:54.867Z,33.25
2022-07-29T09:19:32.121Z,33.27
2022-07-29T09:22:03.065Z,33.28
2022-07-29T09:24:45.744Z,33.35
2022-07-29T09:27:30.117Z,33.41
2022-07-29T09:30:04.913Z,33.43
2022-07-29T09:32:34.780Z,33.42
2022-07-29T09:35:23.299Z,33.48
2022-07-29T09:37:51.540Z,33.22
2022-07-29T09:40:25.758Z,32.86
2022-07-29T09:42:57.959Z,32.75
2022-07-29T09:45:30.552Z,32.83
2022-07-29T09:48:01.641Z,32.96
2022-07-29T09:50:43.121Z,32.97
2022-07-29T09:53:12.327Z,32.97
2022-07-29T09:55:53.344Z,32.84
2022-07-29T09:58:23.631Z,32.77
2022-07-29T10:00:53.476Z,32.54
2022-07-29T10:03:22.719Z,32.13
2022-07-29T10:06:11.087Z,31.94
2022-07-29T10:08:39.580Z,32.03
2022-07-29T10:11:19.059Z,32.20
2022-07-29T10:13:49.064Z,32.32
2022-07-29T10:16:17.992Z,32.33
2022-07-29T10:18:47.940Z,32.36
2022-07-29T10:21:22.474Z,32.42
2022-07-29T10:24:03.633Z,32.49
2022-07-29T10:26:32.477Z,32.56
2022-07-29T10:29:01.619Z,32.61
2022-07-29T10:32:04.891Z,32.49
2022-07-29T10:34:58.234Z,32.40
2022-07-29T10:37:29.234Z,32.42
2022-07-29T10:40:37.949Z,32.43
2022-07-29T10:43:20.668Z,32.44
2022-07-29T10:45:50.934Z,32.42
2022-07-29T10:48:20.881Z,32.34
2022-07-29T10:51:01.468Z,32.28
2022-07-29T10:53:53.451Z,32.24
2022-07-29T10:56:27.272Z,32.12
2022-07-29T10:59:24.224Z,31.91
2022-07-29T11:02:10.659Z,31.61
2022-07-29T11:04:47.157Z,31.40
2022-07-29T11:07:17.594Z,31.21
2022-07-29T11:10:05.670Z,31.03
2022-07-29T11:12:39.930Z,30.92
2022-07-29T11:15:19.955Z,30.90
2022-07-29T11:17:54.150Z,30.86
2022-07-29T11:20:42.712Z,30.76
2022-07-29T11:23:38.008Z,30.74
2022-07-29T11:26:21.154Z,30.73
2022-07-29T11:28:59.106Z,30.73
2022-07-29T11:31:39.300Z,30.70
2022-07-29T11:34:31.519Z,30.61
2022-07-29T11:37:06.449Z,30.43
2022-07-29T11:39:37.638Z,30.27
2022-07-29T11:42:18.284Z,30.16
2022-07-29T11:45:43.825Z,30.03
2022-07-29T11:48:29.854Z,29.97
2022-07-29T11:50:49.896Z,29.98
2022-07-29T11:53:17.946Z,29.99
2022-07-29T11:55:50.928Z,29.96
2022-07-29T11:58:25.043Z,29.91
2022-07-29T12:01:04.923Z,29.85
2022-07-29T12:03:36.064Z,29.78
2022-07-29T12:06:18.208Z,29.70
2022-07-29T12:08:47.540Z,29.67
2022-07-29T12:11:23.765Z,29.69
2022-07-29T12:13:52.746Z,29.73
2022-07-29T12:16:25.627Z,29.74
2022-07-29T12:19:02.947Z,29.76
2022-07-29T12:21:52.304Z,29.77
2022-07-29T12:24:26.892Z,29.76
2022-07-29T12:26:57.636Z,29.72
2022-07-29T12:29:35.475Z,29.55
2022-07-29T12:32:14.775Z,29.30
2022-07-29T12:34:48.096Z,28.94
2022-07-29T12:37:16.580Z,28.63
2022-07-29T12:39:45.150Z,28.35
2022-07-29T12:42:18.530Z,28.16
2022-07-29T12:44:52.434Z,27.96
2022-07-29T12:47:21.534Z,27.76
2022-07-29T12:49:51.127Z,27.54
2022-07-29T12:52:33.843Z,27.28
2022-07-29T12:55:03.035Z,26.98
2022-07-29T12:57:31.293Z,26.76
2022-07-29T13:00:11.042Z,26.41
2022-07-29T13:02:40.915Z,26.13
2022-07-29T13:05:11.400Z,25.93
2022-07-29T13:07:54.418Z,25.74
2022-07-29T13:10:30.454Z,25.55
2022-07-29T13:13:13.565Z,25.43
2022-07-29T13:15:44.113Z,25.31
2022-07-29T13:18:31.562Z,25.21
2022-07-29T13:21:13.316Z,25.09
2022-07-29T13:23:41.917Z,24.99
2022-07-29T13:26:17.366Z,24.94
2022-07-29T13:28:48.122Z,24.84
2022-07-29T13:31:16.900Z,24.77
2022-07-29T13:33:44.934Z,24.73
2022-07-29T13:36:13.231Z,24.70
2022-07-29T13:38:41.353Z,24.62
2022-07-29T13:41:09.486Z,24.51
2022-07-29T13:43:38.672Z,24.40
2022-07-29T13:46:06.783Z,24.25
2022-07-29T13:48:34.891Z,24.11
2022-07-29T13:51:03.403Z,23.94
2022-07-29T13:53:31.493Z,23.77
2022-07-29T13:55:59.840Z,23.67
2022-07-29T13:58:27.998Z,23.58
2022-07-29T14:00:58.001Z,23.48
2022-07-29T14:03:26.241Z,23.36
2022-07-29T14:05:54.309Z,23.25
2022-07-29T14:08:22.255Z,23.13
2022-07-29T14:10:52.123Z,23.00
2022-07-29T14:13:25.376Z,22.92
2022-07-29T14:15:54.362Z,22.82
2022-07-29T14:18:22.400Z,22.73
2022-07-29T14:20:50.768Z,22.59
2022-07-29T14:23:20.220Z,22.48
2022-07-29T14:25:49.370Z,22.39
2022-07-29T14:28:17.977Z,22.31
2022-07-29T14:30:46.196Z,22.22
2022-07-29T14:33:14.633Z,22.13
2022-07-29T14:35:42.742Z,22.05
2022-07-29T14:38:10.749Z,21.97
2022-07-29T14:40:42.204Z,21.91
2022-07-29T14:43:10.293Z,21.83
2022-07-29T14:45:38.349Z,21.79
2022-07-29T14:48:06.755Z,21.76
2022-07-29T14:50:34.860Z,21.70
2022-07-29T14:53:02.869Z,21.61
2022-07-29T14:55:31.108Z,21.51
2022-07-29T14:58:08.662Z,21.43
2022-07-29T15:00:38.826Z,21.35
2022-07-29T15:03:33.877Z,21.30
2022-07-29T15:06:02.782Z,21.25
2022-07-29T15:08:31.754Z,21.22
2022-07-29T15:11:00.499Z,21.19
2022-07-29T15:13:28.593Z,21.15
2022-07-29T15:16:00.100Z,21.11
2022-07-29T15:18:28.448Z,21.08
2022-07-29T15:20:56.414Z,21.06
2022-07-29T15:23:24.477Z,21.06
2022-07-29T15:25:52.559Z,21.05
2022-07-29T15:28:20.554Z,21.04
2022-07-29T15:30:48.504Z,21.04
2022-07-29T15:33:16.552Z,21.05
2022-07-29T15:35:44.743Z,21.06
2022-07-29T15:38:12.763Z,21.06
2022-07-29T15:40:44.735Z,21.08
2022-07-29T15:43:12.951Z,21.11
2022-07-29T15:46:06.748Z,21.14
2022-07-29T15:48:39.255Z,21.18
2022-07-29T15:51:07.261Z,21.25
2022-07-29T15:53:35.431Z,21.31
2022-07-29T15:56:04.640Z,21.37
2022-07-29T15:58:32.589Z,21.45
2022-07-29T16:01:00.733Z,21.50
2022-07-29T16:03:28.952Z,21.57
2022-07-29T16:05:57.320Z,21.66
2022-07-29T16:08:25.650Z,21.77
2022-07-29T16:10:53.805Z,21.87
2022-07-29T16:13:23.206Z,21.95
2022-07-29T16:16:02.215Z,22.01
2022-07-29T16:18:31.131Z,22.08
2022-07-29T16:20:59.233Z,22.12
2022-07-29T16:23:27.279Z,22.18
2022-07-29T16:26:00.034Z,22.22
2022-07-29T16:28:30.997Z,22.28
2022-07-29T16:30:59.215Z,22.38
2022-07-29T16:33:27.362Z,22.51
2022-07-29T16:35:55.376Z,22.67
2022-07-29T16:38:23.469Z,22.84
2022-07-29T16:40:51.459Z,22.97
2022-07-29T16:43:19.398Z,23.13
2022-07-29T16:45:47.631Z,23.26
2022-07-29T16:48:18.072Z,23.39
2022-07-29T16:50:47.007Z,23.50
2022-07-29T16:53:15.022Z,23.59
2022-07-29T16:55:43.322Z,23.64
2022-07-29T16:58:11.847Z,23.66
2022-07-29T17:00:40.084Z,23.65
2022-07-29T17:03:08.179Z,23.63
2022-07-29T17:05:50.668Z,23.60
2022-07-29T17:08:22.882Z,23.57
2022-07-29T17:10:51.297Z,23.54
2022-07-29T17:13:19.606Z,23.52
2022-07-29T17:15:48.135Z,23.49
2022-07-29T17:18:16.252Z,23.45
2022-07-29T17:20:44.310Z,23.42
2022-07-29T17:23:12.225Z,23.39
2022-07-29T17:25:41.020Z,23.36
2022-07-29T17:28:09.022Z,23.33
2022-07-29T17:30:37.078Z,23.30
2022-07-29T17:33:05.083Z,23.28
2022-07-29T17:35:51.781Z,23.26
2022-07-29T17:38:19.805Z,23.24
2022-07-29T17:40:47.798Z,23.21
2022-07-29T17:43:15.875Z,23.19
2022-07-29T17:45:50.226Z,23.17
2022-07-29T17:48:19.896Z,23.15
2022-07-29T17:50:48.768Z,23.11
2022-07-29T17:53:17.026Z,23.08
2022-07-29T17:55:46.433Z,23.03
2022-07-29T17:58:16.536Z,22.98
2022-07-29T18:00:44.873Z,22.94
2022-07-29T18:03:13.203Z,22.90
2022-07-29T18:05:41.591Z,22.85
2022-07-29T18:08:09.737Z,22.80
2022-07-29T18:10:37.844Z,22.75
2022-07-29T18:13:05.868Z,22.70
2022-07-29T18:15:33.946Z,22.65
2022-07-29T18:18:01.914Z,22.59
2022-07-29T18:20:30.060Z,22.54
2022-07-29T18:22:58.151Z,22.49
2022-07-29T18:25:26.851Z,22.41
2022-07-29T18:27:59.877Z,22.35
2022-07-29T18:30:29.786Z,22.29
2022-07-29T18:33:19.635Z,22.24
2022-07-29T18:35:51.055Z,22.18
2022-07-29T18:38:19.819Z,22.13
2022-07-29T18:40:48.536Z,22.08
2022-07-29T18:43:16.580Z,22.02
2022-07-29T18:45:44.688Z,21.97
2022-07-29T18:48:13.816Z,21.92
2022-07-29T18:50:42.672Z,21.88
2022-07-29T18:53:11.221Z,21.84
2022-07-29T18:55:39.442Z,21.80
2022-07-29T18:58:07.490Z,21.76
2022-07-29T19:00:35.639Z,21.72
2022-07-29T19:03:04.170Z,21.68
2022-07-29T19:05:32.815Z,21.65
2022-07-29T19:08:01.081Z,21.62
2022-07-29T19:10:29.663Z,21.59
2022-07-29T19:12:57.994Z,21.56
2022-07-29T19:15:26.247Z,21.52
2022-07-29T19:17:57.808Z,21.49
2022-07-29T19:20:29.627Z,21.46
2022-07-29T19:22:58.731Z,21.43
2022-07-29T19:25:26.831Z,21.39
2022-07-29T19:27:54.898Z,21.35
2022-07-29T19:30:22.914Z,21.32
2022-07-29T19:32:50.987Z,21.28
2022-07-29T19:35:28.519Z,21.25
2022-07-29T19:37:58.930Z,21.22
2022-07-29T19:40:28.187Z,21.18
2022-07-29T19:42:58.166Z,21.16
2022-07-29T19:45:26.829Z,21.14
2022-07-29T19:48:00.801Z,21.13
2022-07-29T19:50:30.336Z,21.12
2022-07-29T19:52:59.350Z,21.09
2022-07-29T19:55:27.645Z,21.07
2022-07-29T19:57:56.129Z,21.05
2022-07-29T20:00:25.253Z,21.03
2022-07-29T20:02:53.774Z,21.01
2022-07-29T20:05:21.946Z,20.98
2022-07-29T20:07:56.408Z,20.95
2022-07-29T20:10:24.514Z,20.92
2022-07-29T20:12:53.866Z,20.89
2022-07-29T20:15:23.843Z,20.88
2022-07-29T20:17:55.316Z,20.86
2022-07-29T20:20:26.173Z,20.86
2022-07-29T20:22:54.475Z,20.83
2022-07-29T20:25:24.339Z,20.81
2022-07-29T20:27:52.687Z,20.78
2022-07-29T20:30:22.544Z,20.76
2022-07-29T20:32:50.796Z,20.72
2022-07-29T20:35:20.226Z,20.68
2022-07-29T20:37:56.311Z,20.65
2022-07-29T20:40:26.603Z,20.61
2022-07-29T20:42:55.693Z,20.60
2022-07-29T20:45:24.405Z,20.58
2022-07-29T20:47:53.358Z,20.55
2022-07-29T20:50:23.959Z,20.52
2022-07-29T20:52:53.095Z,20.49
2022-07-29T20:55:21.901Z,20.46
2022-07-29T20:57:50.191Z,20.41
2022-07-29T21:00:18.522Z,20.38
2022-07-29T21:02:47.409Z,20.33
2022-07-29T21:05:16.324Z,20.29
2022-07-29T21:07:44.386Z,20.25
2022-07-29T21:10:14.434Z,20.20
2022-07-29T21:12:42.622Z,20.15
2022-07-29T21:15:13.661Z,20.12
2022-07-29T21:17:48.481Z,20.09
2022-07-29T21:20:18.123Z,20.05
2022-07-29T21:22:46.191Z,20.01
2022-07-29T21:25:14.187Z,19.99
2022-07-29T21:28:00.885Z,19.97
2022-07-29T21:30:29.143Z,19.94
2022-07-29T21:32:57.327Z,19.91
2022-07-29T21:35:52.109Z,19.89
2022-07-29T21:38:16.417Z,19.86
2022-07-29T21:40:47.016Z,19.85
2022-07-29T21:43:16.318Z,19.84
2022-07-29T21:45:47.835Z,19.82
2022-07-29T21:48:20.597Z,19.81
2022-07-29T21:50:50.406Z,19.79
2022-07-29T21:53:20.817Z,19.78
2022-07-29T21:55:51.605Z,19.77
2022-07-29T21:58:22.972Z,19.76
2022-07-29T22:00:51.155Z,19.75
2022-07-29T22:03:19.537Z,19.74
2022-07-29T22:05:47.653Z,19.74
2022-07-29T22:08:15.771Z,19.72
2022-07-29T22:10:44.626Z,19.72
2022-07-29T22:13:12.820Z,19.71
2022-07-29T22:15:46.828Z,19.69
2022-07-29T22:18:21.018Z,19.67
2022-07-29T22:20:50.701Z,19.67
2022-07-29T22:23:19.177Z,19.67
2022-07-29T22:25:47.538Z,19.67
2022-07-29T22:28:15.754Z,19.66
2022-07-29T22:30:43.860Z,19.67
2022-07-29T22:33:17.652Z,19.67
2022-07-29T22:35:48.599Z,19.68
2022-07-29T22:38:20.218Z,19.69
2022-07-29T22:40:50.587Z,19.70
2022-07-29T22:43:19.220Z,19.70
2022-07-29T22:45:48.100Z,19.71
2022-07-29T22:48:17.231Z,19.72
2022-07-29T22:50:45.537Z,19.73
2022-07-29T22:53:13.882Z,19.73
2022-07-29T22:55:44.598Z,19.73
2022-07-29T22:58:12.978Z,19.74
2022-07-29T23:00:41.428Z,19.74
2022-07-29T23:03:09.527Z,19.75
2022-07-29T23:05:37.881Z,19.76
2022-07-29T23:08:06.267Z,19.78
2022-07-29T23:10:34.661Z,19.80
2022-07-29T23:13:02.778Z,19.81
2022-07-29T23:15:31.291Z,19.83
2022-07-29T23:17:59.648Z,19.84
2022-07-29T23:20:28.268Z,19.86
2022-07-29T23:22:56.507Z,19.87
2022-07-29T23:25:25.563Z,19.88
2022-07-29T23:27:53.914Z,19.87
2022-07-29T23:30:22.121Z,19.91
2022-07-29T23:32:50.369Z,19.92
2022-07-29T23:35:18.779Z,19.90
2022-07-29T23:37:47.160Z,19.93
2022-07-29T23:40:15.897Z,19.94
2022-07-29T23:42:44.298Z,19.92
2022-07-29T23:45:14.247Z,19.94
2022-07-29T23:47:42.799Z,19.94
2022-07-29T23:50:12.648Z,19.95
2022-07-29T23:52:42.529Z,19.96
2022-07-29T23:55:37.497Z,19.97
2022-07-29T23:58:00.809Z,19.98
